Time;durP1;ratioP1;P1;durP2;ratioP2;P2;SDS_P1;SDS_P2;PMS_P1;PMS_P2;Temp;Humidity;BMP_temperature;BMP_pressure;BME280_temperature;BME280_humidity;BME280_pressure;Samples;Min_cycle;Max_cycle;Signal;HPM_P1;HPM_P2
2022/01/10 00:02:11;;;;;;;73.42;36.75;;;;;;;1.63;69.41;99515.88;2126462;83;31699;-62
2022/01/10 00:05:13;;;;;;;75.80;37.38;;;;;;;1.64;69.35;99515.86;2126699;83;33336;-63
2022/01/10 00:08:15;;;;;;;73.83;37.23;;;;;;;1.66;69.31;99524.58;2126502;83;29679;-62
2022/01/10 00:11:17;;;;;;;77.17;38.48;;;;;;;1.67;69.22;99524.99;2126729;83;27688;-63
2022/01/10 00:14:19;;;;;;;83.52;41.23;;;;;;;1.68;69.22;99531.16;2126148;83;29787;-63
2022/01/10 00:17:21;;;;;;;79.90;39.73;;;;;;;1.68;69.20;99536.44;2126344;83;32017;-64
2022/01/10 00:20:23;;;;;;;79.80;39.08;;;;;;;1.71;69.22;99540.77;2125389;83;33007;-65
2022/01/10 00:23:25;;;;;;;82.10;39.98;;;;;;;1.73;69.26;99542.91;2126136;83;29585;-65
2022/01/10 00:26:27;;;;;;;76.20;40.03;;;;;;;1.75;69.28;99547.70;2126372;83;27691;-64
2022/01/10 00:29:28;;;;;;;79.27;39.23;;;;;;;1.78;69.22;99559.52;2124571;83;28650;-65
2022/01/10 00:32:30;;;;;;;72.10;38.50;;;;;;;1.78;69.30;99561.69;2125616;83;31003;-64
2022/01/10 00:35:32;;;;;;;80.47;40.48;;;;;;;1.81;69.30;99568.22;2126602;83;32910;-64
2022/01/10 00:38:33;;;;;;;80.28;41.40;;;;;;;1.82;69.16;99571.27;2126475;83;30394;-65
2022/01/10 00:41:36;;;;;;;77.67;39.98;;;;;;;1.84;69.12;99573.02;2100718;83;27745;-63
2022/01/10 00:44:44;;;;;;;78.97;40.70;;;;;;;1.85;69.23;99580.03;2093357;83;29872;-63
2022/01/10 00:47:41;;;;;;;78.78;39.35;;;;;;;1.89;69.31;99579.05;2091305;83;31442;-63
2022/01/10 00:50:43;;;;;;;78.92;39.60;;;;;;;1.88;69.10;99583.92;2092152;85;32805;-64
2022/01/10 00:53:47;;;;;;;80.60;40.30;;;;;;;1.90;69.31;99583.43;2092339;83;29851;-63
2022/01/10 00:56:48;;;;;;;77.32;41.20;;;;;;;1.92;69.34;99589.52;2099362;84;27246;-63
2022/01/10 00:59:50;;;;;;;80.45;41.83;;;;;;;1.93;69.35;99592.57;2102860;83;29511;-63
2022/01/10 01:02:52;;;;;;;73.57;39.75;;;;;;;1.95;69.21;99596.93;2102618;84;31698;-65
2022/01/10 01:05:54;;;;;;;81.02;40.17;;;;;;;1.96;69.32;99597.78;2101756;84;32933;-64
2022/01/10 01:09:02;;;;;;;81.72;41.05;;;;;;;1.99;69.36;99599.50;2102844;84;30900;-63
2022/01/10 01:15:19;;;;;;;82.92;40.78;;;;;;;2.00;69.25;99600.77;2103456;84;28696;-64
2022/01/10 01:18:18;;;;;;;81.30;41.77;;;;;;;1.99;69.10;99612.70;2099949;84;31053;-64
2022/01/10 01:24:36;;;;;;;80.15;40.52;;;;;;;2.01;69.38;99620.99;2102633;84;30221;-63
2022/01/10 01:27:39;;;;;;;76.57;39.90;;;;;;;2.00;69.35;99619.25;2102561;83;27641;-63
2022/01/10 01:30:42;;;;;;;78.60;41.58;;;;;;;1.99;69.46;99620.16;2101763;84;29542;-63
2022/01/10 01:33:44;;;;;;;74.75;39.78;;;;;;;2.00;69.38;99624.98;2101653;82;32117;-63
2022/01/10 01:36:51;;;;;;;74.90;38.63;;;;;;;2.00;69.49;99634.22;2102260;84;33506;-63
2022/01/10 01:39:51;;;;;;;79.72;38.50;;;;;;;2.01;69.58;99638.60;2110288;83;30430;-63
2022/01/10 01:42:54;;;;;;;78.33;39.35;;;;;;;2.01;69.67;99636.84;2146273;83;27616;-64
2022/01/10 01:45:56;;;;;;;82.47;40.25;;;;;;;2.03;69.67;99646.03;2145658;83;29834;-64
2022/01/10 01:48:58;;;;;;;80.83;40.63;;;;;;;2.04;69.71;99652.63;2145459;83;31974;-63
2022/01/10 01:52:00;;;;;;;79.12;40.05;;;;;;;2.05;69.60;99653.47;2145727;83;34284;-62
2022/01/10 01:55:04;;;;;;;71.62;38.35;;;;;;;2.05;69.67;99654.36;2143888;83;30555;-64
2022/01/10 01:58:05;;;;;;;73.05;38.60;;;;;;;2.05;69.71;99658.33;2126665;83;27641;-63
2022/01/10 02:01:10;;;;;;;75.95;40.95;;;;;;;2.05;69.75;99660.97;2126264;83;29926;-64
2022/01/10 02:04:11;;;;;;;81.08;40.60;;;;;;;2.05;69.76;99663.61;2126712;83;31050;-63
2022/01/10 02:07:17;;;;;;;78.60;41.08;;;;;;;2.06;69.83;99670.63;2126317;83;33472;-62
2022/01/10 02:10:19;;;;;;;79.07;39.83;;;;;;;2.07;69.77;99678.09;2127457;83;30256;-63
2022/01/10 02:13:22;;;;;;;75.72;40.12;;;;;;;2.05;69.80;99679.45;2126563;83;27700;-63
2022/01/10 02:16:33;;;;;;;81.10;41.42;;;;;;;2.05;69.89;99683.86;2126053;83;29094;-65
2022/01/10 02:19:28;;;;;;;81.97;42.38;;;;;;;2.05;69.88;99691.34;2124968;83;32037;-63
2022/01/10 02:22:30;;;;;;;76.20;40.28;;;;;;;2.05;69.88;99695.75;2126092;83;34379;-63
2022/01/10 02:25:31;;;;;;;84.20;40.58;;;;;;;2.05;69.86;99697.95;2125949;83;29767;-60
2022/01/10 02:28:33;;;;;;;73.80;39.85;;;;;;;2.03;69.83;99698.44;2126493;83;27751;-61
2022/01/10 02:31:39;;;;;;;76.92;40.25;;;;;;;2.03;70.00;99702.41;2125224;83;29909;-62
2022/01/10 02:34:41;;;;;;;84.95;43.10;;;;;;;2.01;69.92;99703.33;2126795;83;31061;-61
2022/01/10 02:37:43;;;;;;;87.60;42.40;;;;;;;2.02;69.93;99709.03;2126696;83;33397;-61
2022/01/10 02:40:47;;;;;;;90.12;46.68;;;;;;;2.01;69.91;99711.25;2110251;83;30838;-61
2022/01/10 02:43:49;;;;;;;84.53;46.97;;;;;;;1.96;69.87;99712.25;2093617;85;27532;-61
2022/01/10 02:46:52;;;;;;;89.67;47.95;;;;;;;1.91;69.82;99715.88;2093026;85;29081;-60
2022/01/10 02:49:54;;;;;;;92.10;47.40;;;;;;;1.86;69.84;99722.59;2093084;84;32367;-61
2022/01/10 02:52:56;;;;;;;79.07;42.55;;;;;;;1.86;70.02;99724.39;2093614;85;33385;-63
2022/01/10 02:55:58;;;;;;;85.90;42.95;;;;;;;1.86;70.07;99733.63;2085714;84;29589;-63
2022/01/10 02:59:00;;;;;;;77.55;40.23;;;;;;;1.85;70.02;99740.66;2064988;86;28268;-62
2022/01/10 03:02:03;;;;;;;86.20;41.48;;;;;;;1.84;69.97;99742.03;2064454;86;29217;-60
2022/01/10 03:05:07;;;;;;;87.27;41.68;;;;;;;1.81;70.02;99745.16;2065347;86;31747;-60
2022/01/10 03:08:09;;;;;;;83.00;43.15;;;;;;;1.79;70.06;99742.14;2065030;86;33790;-60
2022/01/10 03:11:10;;;;;;;83.95;42.65;;;;;;;1.80;70.10;99743.89;2064873;86;30811;-60
2022/01/10 03:14:13;;;;;;;86.22;43.45;;;;;;;1.81;70.21;99747.80;2065165;86;27642;-63
2022/01/10 03:17:15;;;;;;;94.52;45.23;;;;;;;1.81;70.21;99744.30;2064847;86;29636;-63
2022/01/10 03:20:17;;;;;;;75.30;41.63;;;;;;;1.82;70.25;99749.54;2065230;86;31466;-61
2022/01/10 03:23:18;;;;;;;97.67;47.23;;;;;;;1.83;70.39;99760.95;2064373;86;32882;-61
2022/01/10 03:26:20;;;;;;;111.92;49.80;;;;;;;1.85;70.31;99767.55;2065000;86;30250;-63
2022/01/10 03:29:22;;;;;;;117.60;53.23;;;;;;;1.82;70.18;99776.42;2064689;86;27808;-64
2022/01/10 03:32:25;;;;;;;101.42;51.13;;;;;;;1.78;70.12;99775.59;2064255;86;29889;-60
2022/01/10 03:35:28;;;;;;;111.88;49.45;;;;;;;1.74;70.11;99779.66;2064958;86;31815;-60
2022/01/10 03:38:30;;;;;;;92.37;46.55;;;;;;;1.71;70.19;99783.69;2064553;86;33862;-65
2022/01/10 03:41:33;;;;;;;87.75;46.58;;;;;;;1.66;70.20;99789.06;2064784;86;30383;-65
2022/01/10 03:44:35;;;;;;;91.78;45.08;;;;;;;1.60;70.20;99801.06;2065062;85;27720;-63
2022/01/10 03:47:37;;;;;;;95.95;49.38;;;;;;;1.54;70.27;99809.98;2064344;86;29938;-62
2022/01/10 03:50:39;;;;;;;95.45;47.70;;;;;;;1.51;70.36;99815.33;2064698;86;32288;-64
2022/01/10 03:53:41;;;;;;;86.67;45.95;;;;;;;1.50;70.45;99818.43;2064817;86;33864;-64
2022/01/10 03:56:43;;;;;;;87.25;44.08;;;;;;;1.50;70.53;99817.11;2081602;84;30130;-63
2022/01/10 03:59:45;;;;;;;81.65;41.60;;;;;;;1.51;70.63;99820.17;2103292;83;27630;-63
2022/01/10 04:02:55;;;;;;;86.92;45.23;;;;;;;1.55;70.70;99828.89;2102514;84;29119;-62
2022/01/10 04:05:50;;;;;;;88.10;46.70;;;;;;;1.59;70.73;99830.58;2102262;84;32262;-63
2022/01/10 04:08:52;;;;;;;83.55;42.93;;;;;;;1.62;70.70;99836.23;2103031;82;32884;-64
2022/01/10 04:11:54;;;;;;;83.72;43.08;;;;;;;1.64;70.77;99838.39;2101957;84;30531;-63
2022/01/10 04:14:56;;;;;;;77.97;42.60;;;;;;;1.67;70.74;99850.22;2102664;84;27644;-63
2022/01/10 04:18:00;;;;;;;78.37;40.17;;;;;;;1.67;70.58;99856.82;2103728;84;29028;-63
2022/01/10 04:21:02;;;;;;;158.65;85.12;;;;;;;1.68;70.48;99858.56;2103127;83;32853;-62
2022/01/10 04:24:04;;;;;;;88.27;44.90;;;;;;;1.67;70.50;99868.23;2102035;84;34024;-62
2022/01/10 04:27:06;;;;;;;75.35;40.78;;;;;;;1.67;70.49;99867.38;2102522;84;30789;-62
2022/01/10 04:30:10;;;;;;;78.22;40.63;;;;;;;1.67;70.58;99880.12;2102377;84;28366;-62
2022/01/10 04:33:17;;;;;;;75.45;43.33;;;;;;;1.69;70.63;99884.50;2070134;84;29593;-62
2022/01/10 04:36:16;;;;;;;100.27;52.58;;;;;;;1.70;70.64;99891.09;2101586;84;32366;-62
2022/01/10 04:39:18;;;;;;;106.10;55.38;;;;;;;1.66;70.52;99895.54;2102884;84;33901;-62
2022/01/10 04:42:19;;;;;;;85.45;45.58;;;;;;;1.65;70.62;99901.75;2102579;84;30947;-64
2022/01/10 04:45:21;;;;;;;127.20;62.62;;;;;;;1.67;70.71;99906.98;2102568;84;28145;-63
2022/01/10 04:48:23;;;;;;;105.80;58.83;;;;;;;1.66;70.61;99912.70;2102207;84;30112;-62
2022/01/10 04:51:27;;;;;;;97.95;47.78;;;;;;;1.62;70.62;99918.97;2103184;83;32408;-61
2022/01/10 04:54:29;;;;;;;94.60;48.33;;;;;;;1.60;70.69;99923.40;2102888;84;33667;-61
2022/01/10 04:57:31;;;;;;;91.65;47.35;;;;;;;1.57;70.74;99922.13;2119538;83;30484;-61
2022/01/10 05:00:32;;;;;;;98.10;52.15;;;;;;;1.54;70.82;99924.83;2119545;84;27738;-62
2022/01/10 05:03:34;;;;;;;91.30;47.85;;;;;;;1.53;70.84;99931.00;2119970;84;29740;-62
2022/01/10 05:06:36;;;;;;;90.83;47.15;;;;;;;1.51;70.93;99927.52;2117985;84;32343;-61
2022/01/10 05:09:38;;;;;;;93.17;47.33;;;;;;;1.50;70.99;99920.48;2120246;84;34336;-61
2022/01/10 05:12:40;;;;;;;91.65;48.80;;;;;;;1.49;70.96;99928.88;2119994;83;30044;-62
2022/01/10 05:15:50;;;;;;;93.00;47.53;;;;;;;1.47;71.03;99934.63;2120399;84;28273;-61
2022/01/10 05:18:48;;;;;;;84.35;45.75;;;;;;;1.49;71.10;99941.22;2118689;84;28960;-61
2022/01/10 05:21:50;;;;;;;87.47;44.15;;;;;;;1.49;71.14;99946.50;2119989;84;31630;-61
2022/01/10 05:24:52;;;;;;;85.87;45.28;;;;;;;1.49;71.15;99943.86;2120525;84;34284;-61
2022/01/10 05:27:54;;;;;;;82.02;42.35;;;;;;;1.51;71.30;99953.48;2120290;84;30007;-63
2022/01/10 05:31:00;;;;;;;82.30;41.83;;;;;;;1.53;71.21;99956.55;2120820;83;27681;-63
2022/01/10 05:33:59;;;;;;;85.70;45.80;;;;;;;1.50;71.25;99957.02;2119658;83;29900;-60
2022/01/10 05:37:01;;;;;;;83.95;43.00;;;;;;;1.46;71.22;99958.42;2119838;83;31409;-61
2022/01/10 05:40:04;;;;;;;89.70;44.83;;;;;;;1.41;71.29;99965.55;2119470;84;34172;-61
2022/01/10 05:43:06;;;;;;;84.60;43.68;;;;;;;1.36;71.34;99972.23;2120831;84;30442;-61
2022/01/10 05:46:09;;;;;;;93.33;48.48;;;;;;;1.33;71.46;99978.41;2119301;83;27704;-61
2022/01/10 05:49:13;;;;;;;97.80;50.17;;;;;;;1.29;71.53;99985.98;2100555;83;28683;-61
2022/01/10 05:52:15;;;;;;;97.47;52.67;;;;;;;1.26;71.75;99989.09;2098186;83;32240;-61
2022/01/10 05:55:17;;;;;;;100.67;50.28;;;;;;;1.23;71.66;100001.90;2121284;83;33461;-61
2022/01/10 05:58:19;;;;;;;108.85;49.77;;;;;;;1.21;71.74;100007.21;2129037;83;29997;-60
2022/01/10 06:01:21;;;;;;;96.55;45.20;;;;;;;1.21;71.78;100011.17;2133668;83;27681;-62
2022/01/10 06:04:23;;;;;;;92.97;47.05;;;;;;;1.19;71.85;100018.23;2133745;83;29052;-60
2022/01/10 06:07:25;;;;;;;106.58;48.78;;;;;;;1.13;71.83;100020.95;2133716;83;31065;-61
2022/01/10 06:10:27;;;;;;;94.92;46.60;;;;;;;1.12;71.89;100039.46;2133113;83;34196;-62
2022/01/10 06:13:29;;;;;;;92.97;46.85;;;;;;;1.10;71.98;100046.06;2133250;83;30962;-61
2022/01/10 06:16:31;;;;;;;92.75;45.92;;;;;;;1.11;72.06;100057.50;2117726;83;27726;-61
2022/01/10 06:19:32;;;;;;;101.72;46.65;;;;;;;1.08;72.09;100063.67;2097053;84;29958;-61
2022/01/10 06:22:35;;;;;;;94.42;45.15;;;;;;;1.06;72.14;100070.30;2097095;84;31398;-61
2022/01/10 06:25:37;;;;;;;87.45;43.60;;;;;;;1.05;72.19;100081.75;2097157;84;34202;-62
2022/01/10 06:28:38;;;;;;;81.35;44.35;;;;;;;1.03;72.24;100087.48;2097598;84;30954;-63
2022/01/10 06:31:40;;;;;;;79.37;42.40;;;;;;;1.01;72.22;100090.59;2098034;84;27705;-61
2022/01/10 06:34:41;;;;;;;84.97;42.50;;;;;;;1.01;72.30;100102.45;2097604;84;29042;-61
2022/01/10 06:37:43;;;;;;;91.97;44.25;;;;;;;0.98;72.28;100109.13;2097592;84;31436;-61
2022/01/10 06:40:45;;;;;;;97.65;43.63;;;;;;;0.96;72.37;100118.81;2097486;84;33954;-62
2022/01/10 06:43:47;;;;;;;86.92;43.73;;;;;;;0.97;72.35;100125.84;2097213;84;30852;-61
2022/01/10 06:46:49;;;;;;;84.28;42.73;;;;;;;0.98;72.44;100142.09;2098017;84;27782;-61
2022/01/10 06:49:51;;;;;;;86.08;42.23;;;;;;;0.96;72.50;100143.88;2097765;84;29257;-64
2022/01/10 06:52:54;;;;;;;83.15;42.75;;;;;;;0.96;72.56;100145.62;2097466;84;32233;-61
2022/01/10 06:55:56;;;;;;;84.13;41.15;;;;;;;0.93;72.48;100154.45;2097625;84;33390;-64
2022/01/10 06:58:58;;;;;;;81.97;41.88;;;;;;;0.91;72.52;100167.64;2099562;84;30907;-62
2022/01/10 07:01:59;;;;;;;72.87;37.42;;;;;;;0.91;72.52;100172.06;2100564;84;27690;-61
2022/01/10 07:05:01;;;;;;;73.87;36.68;;;;;;;0.89;72.57;100181.32;2100464;84;28664;-60
2022/01/10 07:08:04;;;;;;;71.42;36.85;;;;;;;0.89;72.60;100179.11;2100101;84;32192;-65
2022/01/10 07:11:06;;;;;;;71.25;37.73;;;;;;;0.88;72.65;100197.14;2099482;84;34152;-62
2022/01/10 07:14:08;;;;;;;72.42;36.25;;;;;;;0.85;72.69;100202.45;2100058;83;30820;-66
2022/01/10 07:17:10;;;;;;;68.42;37.20;;;;;;;0.85;72.72;100203.77;2099284;84;28303;-64
2022/01/10 07:20:13;;;;;;;238.00;129.50;;;;;;;0.84;72.72;100216.09;2100216;84;28617;-66
2022/01/10 07:23:15;;;;;;;117.75;67.75;;;;;;;0.87;72.79;100228.36;2099894;84;31890;-65
2022/01/10 07:26:17;;;;;;;82.47;43.50;;;;;;;0.87;72.81;100232.31;2099890;84;34201;-66
2022/01/10 07:29:18;;;;;;;79.75;39.15;;;;;;;0.88;72.84;100240.66;2100334;84;30738;-61
2022/01/10 07:32:21;;;;;;;73.85;39.88;;;;;;;0.90;72.80;100242.84;2100161;84;27839;-62
2022/01/10 07:35:22;;;;;;;73.92;40.52;;;;;;;0.91;72.82;100244.59;2100181;83;29914;-61
2022/01/10 07:38:24;;;;;;;74.12;40.90;;;;;;;0.90;72.76;100249.43;2099855;84;32291;-64
2022/01/10 07:41:27;;;;;;;75.72;39.63;;;;;;;0.92;72.78;100259.52;2099725;84;34341;-62
2022/01/10 07:44:29;;;;;;;70.80;38.05;;;;;;;0.96;72.82;100269.59;2100209;84;29652;-61
2022/01/10 07:47:32;;;;;;;74.03;39.13;;;;;;;0.97;72.75;100268.70;2100202;84;27740;-61
2022/01/10 07:50:34;;;;;;;78.87;42.00;;;;;;;0.96;72.73;100277.07;2100214;84;28475;-64
2022/01/10 07:53:37;;;;;;;89.42;47.48;;;;;;;0.98;72.67;100279.25;2099870;84;31910;-62
2022/01/10 07:56:38;;;;;;;91.67;49.25;;;;;;;1.04;72.76;100287.55;2100301;84;34275;-62
2022/01/10 07:59:40;;;;;;;89.15;46.23;;;;;;;1.06;72.51;100291.90;2106655;83;31068;-62
2022/01/10 08:02:42;;;;;;;96.60;49.10;;;;;;;1.08;72.55;100301.56;2145830;83;27587;-62
2022/01/10 08:05:44;;;;;;;113.03;56.30;;;;;;;1.12;72.60;100307.24;2145649;83;28784;-66
2022/01/10 08:08:46;;;;;;;118.93;57.48;;;;;;;1.16;72.41;100312.92;2145393;83;31369;-61
2022/01/10 08:11:48;;;;;;;112.03;56.95;;;;;;;1.19;72.31;100317.72;2145460;83;34150;-62
2022/01/10 08:14:50;;;;;;;118.15;59.48;;;;;;;1.23;72.19;100325.61;2145568;83;30840;-62
2022/01/10 08:17:52;;;;;;;118.55;61.73;;;;;;;1.24;72.12;100333.95;2146263;83;27653;-64
2022/01/10 08:20:53;;;;;;;131.37;67.40;;;;;;;1.27;71.91;100334.78;2146366;83;29032;-61
2022/01/10 08:23:55;;;;;;;126.30;67.15;;;;;;;1.33;72.10;100342.61;2145727;83;31921;-62
2022/01/10 08:26:58;;;;;;;125.12;64.85;;;;;;;1.35;71.85;100350.08;2146119;83;33337;-62
2022/01/10 08:30:00;;;;;;;122.78;60.98;;;;;;;1.43;72.00;100357.05;2145938;83;30886;-62
2022/01/10 08:33:02;;;;;;;122.35;62.35;;;;;;;1.49;71.78;100356.53;2145929;83;27691;-64
2022/01/10 08:36:04;;;;;;;121.62;61.92;;;;;;;1.58;71.85;100365.22;2145179;83;28662;-61
2022/01/10 08:39:08;;;;;;;119.10;63.48;;;;;;;1.66;71.55;100370.84;2146070;83;32224;-62
2022/01/10 08:42:10;;;;;;;130.43;69.50;;;;;;;1.73;71.27;100378.70;2145797;83;33085;-62
2022/01/10 08:45:12;;;;;;;121.10;60.60;;;;;;;1.75;71.33;100383.52;2145470;82;30076;-60
2022/01/10 08:48:14;;;;;;;126.33;65.40;;;;;;;1.77;70.81;100387.03;2146205;83;27665;-63
2022/01/10 08:51:17;;;;;;;125.67;63.87;;;;;;;1.74;70.87;100394.52;2145528;83;29538;-61
2022/01/10 08:54:19;;;;;;;113.47;54.98;;;;;;;1.77;70.96;100398.45;2145892;83;31023;-60
2022/01/10 08:57:21;;;;;;;109.32;57.62;;;;;;;1.72;70.59;100402.94;2143345;83;34264;-60
2022/01/10 09:00:25;;;;;;;120.72;59.03;;;;;;;1.66;70.59;100407.81;2108627;83;30138;-61
2022/01/10 09:03:27;;;;;;;113.73;59.07;;;;;;;1.66;70.51;100410.91;2087090;84;28323;-60
2022/01/10 09:06:29;;;;;;;120.40;60.73;;;;;;;1.64;70.66;100409.63;2075636;84;29883;-64
2022/01/10 09:09:32;;;;;;;122.65;61.15;;;;;;;1.67;70.64;100414.84;2075156;84;32483;-61
2022/01/10 09:12:33;;;;;;;129.42;65.00;;;;;;;1.70;70.53;100419.67;2075640;85;33016;-60
2022/01/10 09:15:37;;;;;;;124.80;64.32;;;;;;;1.76;70.73;100426.22;2076529;84;29868;-61
2022/01/10 09:18:39;;;;;;;121.42;64.22;;;;;;;1.84;70.51;100435.38;2075388;84;27675;-60
2022/01/10 09:21:41;;;;;;;126.20;63.65;;;;;;;1.89;70.54;100430.92;2074556;84;28851;-61
2022/01/10 09:24:46;;;;;;;123.53;64.72;;;;;;;1.94;70.35;100436.57;2075966;83;32266;-60
2022/01/10 09:27:47;;;;;;;137.55;64.53;;;;;;;1.96;70.04;100446.68;2075819;84;33517;-60
2022/01/10 09:30:49;;;;;;;131.78;66.92;;;;;;;2.00;70.16;100449.25;2075863;85;30915;-61
2022/01/10 09:33:55;;;;;;;131.27;66.20;;;;;;;2.02;70.13;100443.51;2076300;83;27754;-60
2022/01/10 09:36:57;;;;;;;135.80;66.65;;;;;;;2.07;70.02;100446.52;2075141;84;29490;-60
2022/01/10 09:39:59;;;;;;;122.62;62.30;;;;;;;2.13;70.24;100449.56;2076340;85;31322;-59
2022/01/10 09:43:01;;;;;;;126.65;66.70;;;;;;;2.19;69.95;100464.00;2075718;85;34202;-64
2022/01/10 09:46:03;;;;;;;137.80;69.92;;;;;;;2.22;69.97;100463.11;2075707;85;30476;-62
2022/01/10 09:49:06;;;;;;;128.53;68.12;;;;;;;2.24;69.80;100459.97;2076125;85;27717;-62
2022/01/10 09:52:12;;;;;;;153.00;76.33;;;;;;;2.22;69.35;100465.29;2075971;84;29531;-60
2022/01/10 09:55:13;;;;;;;131.93;67.97;;;;;;;2.23;69.51;100470.14;2076078;84;31609;-61
2022/01/10 09:58:16;;;;;;;151.53;74.67;;;;;;;2.26;69.38;100477.58;2082576;84;34228;-64
2022/01/10 10:01:18;;;;;;;154.55;73.67;;;;;;;2.29;69.62;100476.66;2106501;83;30458;-60
2022/01/10 10:04:20;;;;;;;146.02;74.10;;;;;;;2.34;69.61;100487.17;2106344;84;27610;-60
2022/01/10 10:07:32;;;;;;;151.15;76.07;;;;;;;2.39;69.44;100494.17;2107180;83;29917;-60
2022/01/10 10:10:40;;;;;;;;;;;;;;;2.44;69.42;100494.11;2145818;83;31849;-60
2022/01/10 10:13:54;;;;;;;136.28;68.55;;;;;;;2.46;69.10;100494.08;2138120;83;28238;-61
2022/01/10 10:16:57;;;;;;;135.68;68.45;;;;;;;2.46;69.04;100505.55;2142767;83;31519;-60
2022/01/10 10:20:00;;;;;;;125.12;61.90;;;;;;;2.52;69.02;100511.20;2143166;83;27736;-63
2022/01/10 10:23:04;;;;;;;119.37;62.48;;;;;;;2.54;68.80;100513.38;2143000;83;29947;-61
2022/01/10 10:26:07;;;;;;;136.00;68.45;;;;;;;2.55;68.51;100523.92;2143481;83;32209;-61
2022/01/10 10:29:13;;;;;;;130.78;66.77;;;;;;;2.59;68.78;100526.06;2143049;83;34289;-61
2022/01/10 10:32:17;;;;;;;142.85;71.02;;;;;;;2.64;68.80;100539.26;2143264;83;29618;-62
2022/01/10 10:35:19;;;;;;;145.47;70.28;;;;;;;2.72;68.73;100542.66;2143644;83;27809;-62
2022/01/10 10:38:21;;;;;;;140.55;72.10;;;;;;;2.71;68.37;100540.91;2143118;83;29206;-61
2022/01/10 10:41:23;;;;;;;141.68;66.57;;;;;;;2.71;68.40;100549.73;2143126;83;31963;-60
2022/01/10 10:44:25;;;;;;;135.05;65.95;;;;;;;2.73;68.25;100558.96;2143481;83;33789;-60
2022/01/10 10:47:28;;;;;;;124.55;63.42;;;;;;;2.73;68.15;100559.82;2143090;83;31077;-61
2022/01/10 10:50:34;;;;;;;155.75;75.00;;;;;;;2.77;68.12;100562.44;2143333;83;27666;-61
2022/01/10 10:53:34;;;;;;;158.97;77.95;;;;;;;2.84;68.18;100572.91;2143323;83;28755;-61
2022/01/10 10:56:39;;;;;;;153.78;76.67;;;;;;;2.85;68.25;100574.66;2143072;83;31879;-63
2022/01/10 10:59:43;;;;;;;155.90;72.72;;;;;;;2.93;68.18;100581.64;2137366;83;32897;-62
2022/01/10 11:02:46;;;;;;;122.53;62.73;;;;;;;2.98;67.93;100589.08;2132902;83;31025;-65
2022/01/10 11:05:53;;;;;;;113.85;58.45;;;;;;;3.00;67.90;100592.13;2102967;83;33198;-66
2022/01/10 11:08:55;;;;;;;101.62;53.08;;;;;;;3.00;67.46;100600.06;2097078;83;28639;-61
2022/01/10 11:11:59;;;;;;;94.22;52.27;;;;;;;3.01;67.23;100597.84;2096655;84;27887;-64
2022/01/10 11:15:04;;;;;;;104.50;55.92;;;;;;;3.02;66.94;100604.89;2096597;84;34165;-64
2022/01/10 11:18:08;;;;;;;100.20;52.65;;;;;;;3.04;66.96;100608.83;2074130;84;29826;-64
2022/01/10 11:21:11;;;;;;;113.10;55.90;;;;;;;3.07;66.64;100609.22;2095539;84;27699;-63
2022/01/10 11:24:14;;;;;;;101.60;54.90;;;;;;;3.12;67.03;100617.98;2096041;84;28713;-64
2022/01/10 11:27:36;;;;;;;119.60;60.28;;;;;;;3.16;66.58;100625.85;2058043;86;32074;-64
2022/01/10 11:30:42;;;;;;;109.35;57.27;;;;;;;3.17;66.74;100624.09;2023281;88;33100;-62
2022/01/10 11:33:45;;;;;;;110.65;58.28;;;;;;;3.22;66.72;100623.59;2058490;86;29623;-62
2022/01/10 11:36:49;;;;;;;124.82;60.85;;;;;;;3.21;66.62;100625.81;2000657;88;28141;-62
2022/01/10 11:39:51;;;;;;;119.93;60.43;;;;;;;3.26;66.48;100638.98;2051665;85;29488;-61
2022/01/10 11:43:29;;;;;;;111.52;58.30;;;;;;;3.27;66.51;100642.92;2099746;84;32216;-63
2022/01/10 11:46:47;;;;;;;99.07;54.73;;;;;;;3.30;66.35;100642.88;2113549;83;33321;-62
2022/01/10 11:50:24;;;;;;;100.50;54.65;;;;;;;3.29;66.01;100641.13;2102761;83;30917;-63
2022/01/10 11:53:25;;;;;;;;;;;;;;;3.30;66.39;100653.94;2080076;84;27741;-61
2022/01/10 11:56:31;;;;;;;115.15;59.35;;;;;;;3.36;66.05;100658.27;2068199;86;29950;-63
2022/01/10 11:59:40;;;;;;;111.15;57.17;;;;;;;3.39;66.40;100668.36;2136670;83;31212;-66
2022/01/10 12:02:42;;;;;;;103.80;56.65;;;;;;;3.39;65.83;100665.71;2136683;83;32546;-62
2022/01/10 12:05:44;;;;;;;100.67;53.73;;;;;;;3.37;65.38;100674.59;2136364;81;30845;-64
2022/01/10 12:08:45;;;;;;;106.90;55.10;;;;;;;3.33;64.58;100677.27;2135475;82;28381;-63
2022/01/10 12:11:51;;;;;;;108.78;55.10;;;;;;;3.22;64.45;100676.98;2136337;83;30104;-65
2022/01/10 12:14:55;;;;;;;97.40;54.00;;;;;;;3.14;64.58;100683.27;2136409;83;31868;-64
2022/01/10 12:17:57;;;;;;;86.60;47.85;;;;;;;3.11;64.57;100685.95;2136141;81;33575;-65
2022/01/10 12:20:59;;;;;;;93.65;48.40;;;;;;;3.10;63.87;100692.56;2135698;83;30587;-61
2022/01/10 12:24:02;;;;;;;90.83;46.70;;;;;;;3.04;63.20;100701.46;2145037;81;27724;-64
2022/01/10 12:27:07;;;;;;;102.90;48.50;;;;;;;2.97;63.09;100713.03;2173275;81;29954;-64
2022/01/10 12:30:10;;;;;;;97.35;50.52;;;;;;;2.92;62.84;100723.64;2172766;81;32946;-63
2022/01/10 12:33:12;;;;;;;103.62;51.73;;;;;;;2.86;62.60;100724.59;2173447;81;33187;-64
2022/01/10 12:36:14;;;;;;;94.40;47.90;;;;;;;2.77;61.98;100731.75;2173594;81;30820;-64
2022/01/10 12:39:23;;;;;;;98.15;53.17;;;;;;;2.68;62.06;100740.23;2173959;81;27632;-63
2022/01/10 12:42:27;;;;;;;98.70;51.73;;;;;;;2.61;62.29;100746.92;2136495;83;29916;-62
2022/01/10 12:45:36;;;;;;;111.57;55.98;;;;;;;2.58;62.32;100762.34;2136384;83;31483;-64
2022/01/10 12:48:41;;;;;;;102.17;52.95;;;;;;;2.54;62.15;100765.48;2136770;83;33741;-66
2022/01/10 12:51:48;;;;;;;106.45;56.33;;;;;;;2.47;61.67;100778.77;2112719;83;30446;-66
2022/01/10 12:54:50;;;;;;;107.32;55.92;;;;;;;2.42;62.60;100786.28;2081112;85;27708;-62
2022/01/10 12:57:53;;;;;;;109.55;56.20;;;;;;;2.35;62.33;100787.24;2062018;85;28598;-62
2022/01/10 13:00:55;;;;;;;108.72;55.08;;;;;;;2.31;62.71;100791.25;2081555;84;31860;-61
2022/01/10 13:04:02;;;;;;;105.55;57.50;;;;;;;2.28;62.57;100809.31;2081528;84;32897;-63
2022/01/10 13:07:14;;;;;;;117.70;59.58;;;;;;;2.25;62.98;100806.69;2081404;85;29648;-65
2022/01/10 13:10:22;;;;;;;108.37;56.00;;;;;;;2.24;62.92;100814.18;2080664;85;27707;-61
2022/01/10 13:13:23;;;;;;;122.65;58.73;;;;;;;2.19;62.14;100817.32;2081393;84;28717;-65
2022/01/10 13:16:31;;;;;;;111.52;56.28;;;;;;;2.11;62.51;100828.81;2080649;85;31166;-62
2022/01/10 13:19:33;;;;;;;107.92;55.98;;;;;;;2.09;62.53;100828.39;2081666;84;32972;-61
2022/01/10 13:22:43;;;;;;;105.35;53.08;;;;;;;2.04;62.50;100835.46;2081786;85;29969;-61
2022/01/10 13:25:45;;;;;;;103.78;54.53;;;;;;;1.97;62.32;100838.58;2080738;85;27854;-63
2022/01/10 13:28:47;;;;;;;107.20;56.45;;;;;;;1.94;62.73;100849.16;2081431;84;28728;-66
2022/01/10 13:31:49;;;;;;;101.95;56.02;;;;;;;1.90;63.05;100854.05;2081268;84;31571;-65
2022/01/10 13:35:08;;;;;;;104.00;54.65;;;;;;;1.90;62.95;100856.69;2096107;84;33407;-68
2022/01/10 13:38:15;;;;;;;107.47;57.15;;;;;;;1.88;63.08;100869.89;2115622;84;30014;-65
2022/01/10 13:41:16;;;;;;;102.62;52.53;;;;;;;1.85;62.79;100883.56;2116822;84;27690;-62
2022/01/10 13:44:18;;;;;;;112.28;59.35;;;;;;;1.82;62.64;100885.79;2116773;84;28809;-63
2022/01/10 13:47:21;;;;;;;116.55;56.90;;;;;;;1.76;62.84;100895.91;2103201;84;31508;-65
2022/01/10 13:50:27;;;;;;;114.15;57.95;;;;;;;1.73;62.64;100895.05;2116603;84;34261;-62
2022/01/10 13:53:51;;;;;;;110.80;55.15;;;;;;;1.70;62.78;100897.27;2116653;81;29646;-64
2022/01/10 13:56:54;;;;;;;110.37;55.83;;;;;;;1.66;63.00;100900.80;2116331;84;28092;-63
2022/01/10 14:00:23;;;;;;;114.62;55.38;;;;;;;1.65;63.03;100902.58;2116559;84;29035;-61
2022/01/10 14:03:28;;;;;;;109.73;56.73;;;;;;;1.62;62.88;100905.64;2114846;83;31042;-63
2022/01/10 14:06:33;;;;;;;106.03;55.65;;;;;;;1.57;63.07;100916.23;2079631;85;33583;-64
2022/01/10 14:09:37;;;;;;;104.72;55.50;;;;;;;1.53;63.08;100924.17;2079255;85;30733;-62